sensor_id;sensor_type;location;lat;lon;timestamp;pressure;altitude;pressure_sealevel;temperature;humidity
21545;BME280;10933;50.754;11.508;2024-01-06T00:02:06;98334.38;;;2.49;100.00
21545;BME280;10933;50.754;11.508;2024-01-06T00:04:32;98335.94;;;2.26;100.00
21545;BME280;10933;50.754;11.508;2024-01-06T00:06:59;98336.38;;;2.23;100.00
21545;BME280;10933;50.754;11.508;2024-01-06T00:09:25;98326.72;;;2.41;100.00
21545;BME280;10933;50.754;11.508;2024-01-06T00:11:51;98326.31;;;2.79;100.00
21545;BME280;10933;50.754;11.508;2024-01-06T00:14:17;98329.19;;;2.77;100.00
21545;BME280;10933;50.754;11.508;2024-01-06T00:16:43;98317.28;;;3.03;100.00
21545;BME280;10933;50.754;11.508;2024-01-06T00:19:09;98320.06;;;3.08;100.00
21545;BME280;10933;50.754;11.508;2024-01-06T00:21:35;98323.53;;;2.85;100.00
21545;BME280;10933;50.754;11.508;2024-01-06T00:24:01;98325.72;;;2.65;100.00
21545;BME280;10933;50.754;11.508;2024-01-06T00:26:27;98325.41;;;2.97;100.00
21545;BME280;10933;50.754;11.508;2024-01-06T00:28:53;98328.63;;;3.22;100.00
21545;BME280;10933;50.754;11.508;2024-01-06T00:31:20;98332.69;;;3.13;100.00
21545;BME280;10933;50.754;11.508;2024-01-06T00:33:46;98343.81;;;3.33;100.00
21545;BME280;10933;50.754;11.508;2024-01-06T00:36:12;98345.53;;;3.16;100.00
21545;BME280;10933;50.754;11.508;2024-01-06T00:38:38;98356.09;;;2.99;100.00
21545;BME280;10933;50.754;11.508;2024-01-06T00:41:04;98369.28;;;2.82;100.00
21545;BME280;10933;50.754;11.508;2024-01-06T00:43:30;98365.78;;;2.70;100.00
21545;BME280;10933;50.754;11.508;2024-01-06T00:45:56;98363.25;;;2.75;100.00
21545;BME280;10933;50.754;11.508;2024-01-06T00:48:23;98377.44;;;2.46;100.00
21545;BME280;10933;50.754;11.508;2024-01-06T00:50:49;98367.75;;;2.21;100.00
21545;BME280;10933;50.754;11.508;2024-01-06T00:53:15;98358.16;;;2.02;100.00
21545;BME280;10933;50.754;11.508;2024-01-06T00:55:41;98360.06;;;2.13;100.00
21545;BME280;10933;50.754;11.508;2024-01-06T00:58:07;98357.09;;;2.21;100.00
21545;BME280;10933;50.754;11.508;2024-01-06T01:00:34;98350.84;;;2.27;100.00
21545;BME280;10933;50.754;11.508;2024-01-06T01:03:00;98353.50;;;2.57;100.00
21545;BME280;10933;50.754;11.508;2024-01-06T01:05:26;98362.22;;;2.34;100.00
21545;BME280;10933;50.754;11.508;2024-01-06T01:07:52;98354.78;;;2.25;100.00
21545;BME280;10933;50.754;11.508;2024-01-06T01:10:18;98348.53;;;2.19;100.00
21545;BME280;10933;50.754;11.508;2024-01-06T01:12:44;98356.19;;;2.27;100.00
21545;BME280;10933;50.754;11.508;2024-01-06T01:15:10;98356.06;;;2.22;100.00
21545;BME280;10933;50.754;11.508;2024-01-06T01:17:37;98350.47;;;2.54;100.00
21545;BME280;10933;50.754;11.508;2024-01-06T01:20:03;98348.44;;;2.68;100.00
21545;BME280;10933;50.754;11.508;2024-01-06T01:22:29;98356.28;;;2.74;100.00
21545;BME280;10933;50.754;11.508;2024-01-06T01:24:55;98351.84;;;2.45;100.00
21545;BME280;10933;50.754;11.508;2024-01-06T01:27:21;98348.66;;;2.89;100.00
21545;BME280;10933;50.754;11.508;2024-01-06T01:29:47;98360.22;;;2.60;100.00
21545;BME280;10933;50.754;11.508;2024-01-06T01:32:16;98357.78;;;2.58;100.00
21545;BME280;10933;50.754;11.508;2024-01-06T01:34:42;98368.00;;;2.73;100.00
21545;BME280;10933;50.754;11.508;2024-01-06T01:37:08;98357.81;;;2.82;100.00
21545;BME280;10933;50.754;11.508;2024-01-06T01:39:34;98367.41;;;2.71;100.00
21545;BME280;10933;50.754;11.508;2024-01-06T01:42:00;98369.13;;;2.65;100.00
21545;BME280;10933;50.754;11.508;2024-01-06T01:44:26;98364.50;;;2.73;100.00
21545;BME280;10933;50.754;11.508;2024-01-06T01:46:52;98369.16;;;2.89;100.00
21545;BME280;10933;50.754;11.508;2024-01-06T01:49:18;98369.75;;;3.26;100.00
21545;BME280;10933;50.754;11.508;2024-01-06T01:51:45;98376.03;;;3.08;100.00
21545;BME280;10933;50.754;11.508;2024-01-06T01:54:11;98380.88;;;3.00;100.00
21545;BME280;10933;50.754;11.508;2024-01-06T01:56:40;98380.16;;;2.69;100.00
21545;BME280;10933;50.754;11.508;2024-01-06T01:59:11;98373.81;;;2.93;100.00
21545;BME280;10933;50.754;11.508;2024-01-06T02:01:39;98382.75;;;3.11;100.00
21545;BME280;10933;50.754;11.508;2024-01-06T02:04:06;98377.28;;;2.82;100.00
21545;BME280;10933;50.754;11.508;2024-01-06T02:06:32;98382.59;;;2.41;100.00
21545;BME280;10933;50.754;11.508;2024-01-06T02:08:58;98375.31;;;2.06;100.00
21545;BME280;10933;50.754;11.508;2024-01-06T02:11:24;98376.06;;;1.95;100.00
21545;BME280;10933;50.754;11.508;2024-01-06T02:13:51;98370.59;;;2.08;100.00
21545;BME280;10933;50.754;11.508;2024-01-06T02:16:17;98369.47;;;2.57;100.00
21545;BME280;10933;50.754;11.508;2024-01-06T02:18:43;98376.00;;;2.97;100.00
21545;BME280;10933;50.754;11.508;2024-01-06T02:21:10;98377.66;;;2.44;100.00
21545;BME280;10933;50.754;11.508;2024-01-06T02:23:37;98372.38;;;2.79;100.00
21545;BME280;10933;50.754;11.508;2024-01-06T02:26:03;98382.03;;;3.04;100.00
21545;BME280;10933;50.754;11.508;2024-01-06T02:28:30;98379.63;;;2.49;100.00
21545;BME280;10933;50.754;11.508;2024-01-06T02:30:56;98370.75;;;2.55;100.00
21545;BME280;10933;50.754;11.508;2024-01-06T02:33:22;98368.41;;;2.47;100.00
21545;BME280;10933;50.754;11.508;2024-01-06T02:35:50;98371.81;;;2.77;100.00
21545;BME280;10933;50.754;11.508;2024-01-06T02:38:16;98366.63;;;2.94;100.00
21545;BME280;10933;50.754;11.508;2024-01-06T02:40:42;98366.50;;;3.01;100.00
21545;BME280;10933;50.754;11.508;2024-01-06T02:43:09;98366.72;;;2.87;100.00
21545;BME280;10933;50.754;11.508;2024-01-06T02:45:35;98376.56;;;2.87;100.00
21545;BME280;10933;50.754;11.508;2024-01-06T02:48:01;98374.16;;;2.85;100.00
21545;BME280;10933;50.754;11.508;2024-01-06T02:50:28;98380.53;;;2.96;100.00
21545;BME280;10933;50.754;11.508;2024-01-06T02:52:54;98388.91;;;2.58;100.00
21545;BME280;10933;50.754;11.508;2024-01-06T02:55:20;98385.13;;;2.89;100.00
21545;BME280;10933;50.754;11.508;2024-01-06T02:57:46;98392.34;;;3.00;100.00
21545;BME280;10933;50.754;11.508;2024-01-06T03:00:12;98402.59;;;2.73;100.00
21545;BME280;10933;50.754;11.508;2024-01-06T03:02:38;98405.59;;;2.65;100.00
21545;BME280;10933;50.754;11.508;2024-01-06T03:05:08;98403.34;;;2.50;100.00
21545;BME280;10933;50.754;11.508;2024-01-06T03:07:34;98416.72;;;2.32;100.00
21545;BME280;10933;50.754;11.508;2024-01-06T03:10:00;98420.88;;;2.58;100.00
21545;BME280;10933;50.754;11.508;2024-01-06T03:12:27;98427.56;;;2.60;100.00
21545;BME280;10933;50.754;11.508;2024-01-06T03:14:53;98436.25;;;2.56;100.00
21545;BME280;10933;50.754;11.508;2024-01-06T03:17:19;98439.28;;;2.11;100.00
21545;BME280;10933;50.754;11.508;2024-01-06T03:19:45;98444.78;;;2.16;100.00
21545;BME280;10933;50.754;11.508;2024-01-06T03:22:11;98452.19;;;2.26;100.00
21545;BME280;10933;50.754;11.508;2024-01-06T03:24:37;98446.38;;;2.17;100.00
21545;BME280;10933;50.754;11.508;2024-01-06T03:27:03;98434.88;;;1.87;100.00
21545;BME280;10933;50.754;11.508;2024-01-06T03:29:29;98430.28;;;1.94;100.00
21545;BME280;10933;50.754;11.508;2024-01-06T03:31:55;98424.97;;;1.94;100.00
21545;BME280;10933;50.754;11.508;2024-01-06T03:34:21;98419.81;;;1.81;100.00
21545;BME280;10933;50.754;11.508;2024-01-06T03:36:47;98422.78;;;1.91;100.00
21545;BME280;10933;50.754;11.508;2024-01-06T03:39:13;98411.53;;;1.89;100.00
21545;BME280;10933;50.754;11.508;2024-01-06T03:41:40;98411.91;;;1.92;100.00
21545;BME280;10933;50.754;11.508;2024-01-06T03:44:06;98408.72;;;1.84;100.00
21545;BME280;10933;50.754;11.508;2024-01-06T03:46:34;98410.03;;;2.11;100.00
21545;BME280;10933;50.754;11.508;2024-01-06T03:49:00;98418.00;;;2.29;100.00
21545;BME280;10933;50.754;11.508;2024-01-06T03:51:26;98414.91;;;1.77;100.00
21545;BME280;10933;50.754;11.508;2024-01-06T03:53:52;98412.44;;;1.83;100.00
21545;BME280;10933;50.754;11.508;2024-01-06T03:56:19;98407.41;;;1.74;100.00
21545;BME280;10933;50.754;11.508;2024-01-06T03:58:45;98409.03;;;2.24;100.00
21545;BME280;10933;50.754;11.508;2024-01-06T04:01:11;98417.13;;;1.99;100.00
21545;BME280;10933;50.754;11.508;2024-01-06T04:03:38;98419.56;;;2.00;100.00
21545;BME280;10933;50.754;11.508;2024-01-06T04:06:06;98412.78;;;2.04;100.00
21545;BME280;10933;50.754;11.508;2024-01-06T04:08:32;98412.63;;;1.99;100.00
21545;BME280;10933;50.754;11.508;2024-01-06T04:10:58;98405.47;;;1.82;100.00
21545;BME280;10933;50.754;11.508;2024-01-06T04:13:24;98404.06;;;1.97;100.00
21545;BME280;10933;50.754;11.508;2024-01-06T04:15:51;98405.28;;;2.13;100.00
21545;BME280;10933;50.754;11.508;2024-01-06T04:18:17;98407.75;;;2.45;100.00
21545;BME280;10933;50.754;11.508;2024-01-06T04:20:44;98406.03;;;2.20;100.00
21545;BME280;10933;50.754;11.508;2024-01-06T04:23:10;98416.78;;;2.44;100.00
21545;BME280;10933;50.754;11.508;2024-01-06T04:25:36;98420.28;;;2.56;100.00
21545;BME280;10933;50.754;11.508;2024-01-06T04:28:02;98422.22;;;2.49;100.00
21545;BME280;10933;50.754;11.508;2024-01-06T04:30:28;98425.06;;;2.35;100.00
21545;BME280;10933;50.754;11.508;2024-01-06T04:32:54;98426.72;;;2.48;100.00
21545;BME280;10933;50.754;11.508;2024-01-06T04:35:21;98425.28;;;2.34;100.00
21545;BME280;10933;50.754;11.508;2024-01-06T04:37:47;98429.38;;;2.18;100.00
21545;BME280;10933;50.754;11.508;2024-01-06T04:40:13;98426.63;;;2.25;100.00
21545;BME280;10933;50.754;11.508;2024-01-06T04:42:39;98424.88;;;2.00;100.00
21545;BME280;10933;50.754;11.508;2024-01-06T04:45:06;98416.78;;;1.95;100.00
21545;BME280;10933;50.754;11.508;2024-01-06T04:47:32;98423.72;;;1.96;100.00
21545;BME280;10933;50.754;11.508;2024-01-06T04:49:58;98426.97;;;1.98;100.00
21545;BME280;10933;50.754;11.508;2024-01-06T04:52:24;98426.50;;;2.01;100.00
21545;BME280;10933;50.754;11.508;2024-01-06T04:54:50;98415.66;;;1.85;100.00
21545;BME280;10933;50.754;11.508;2024-01-06T04:57:16;98416.72;;;1.84;100.00
21545;BME280;10933;50.754;11.508;2024-01-06T04:59:43;98408.34;;;1.62;100.00
21545;BME280;10933;50.754;11.508;2024-01-06T05:02:09;98406.94;;;1.77;100.00
21545;BME280;10933;50.754;11.508;2024-01-06T05:04:35;98403.56;;;1.70;100.00
21545;BME280;10933;50.754;11.508;2024-01-06T05:07:01;98402.25;;;1.80;100.00
21545;BME280;10933;50.754;11.508;2024-01-06T05:09:28;98410.81;;;1.82;100.00
21545;BME280;10933;50.754;11.508;2024-01-06T05:11:54;98407.31;;;1.99;100.00
21545;BME280;10933;50.754;11.508;2024-01-06T05:14:20;98410.34;;;1.85;100.00
21545;BME280;10933;50.754;11.508;2024-01-06T05:16:46;98402.69;;;1.58;100.00
21545;BME280;10933;50.754;11.508;2024-01-06T05:19:13;98396.84;;;1.68;100.00
21545;BME280;10933;50.754;11.508;2024-01-06T05:21:45;98395.66;;;1.45;100.00
21545;BME280;10933;50.754;11.508;2024-01-06T05:24:12;98387.47;;;1.84;100.00
21545;BME280;10933;50.754;11.508;2024-01-06T05:26:38;98400.78;;;1.65;100.00
21545;BME280;10933;50.754;11.508;2024-01-06T05:29:04;98409.09;;;1.87;100.00
21545;BME280;10933;50.754;11.508;2024-01-06T05:31:30;98405.16;;;2.08;100.00
21545;BME280;10933;50.754;11.508;2024-01-06T05:33:56;98406.09;;;1.65;100.00
21545;BME280;10933;50.754;11.508;2024-01-06T05:36:23;98410.06;;;1.74;100.00
21545;BME280;10933;50.754;11.508;2024-01-06T05:38:49;98411.47;;;1.59;100.00
21545;BME280;10933;50.754;11.508;2024-01-06T05:41:15;98405.09;;;1.60;100.00
21545;BME280;10933;50.754;11.508;2024-01-06T05:43:41;98415.22;;;1.51;100.00
21545;BME280;10933;50.754;11.508;2024-01-06T05:46:07;98416.09;;;1.45;100.00
21545;BME280;10933;50.754;11.508;2024-01-06T05:48:34;98420.84;;;1.61;100.00
21545;BME280;10933;50.754;11.508;2024-01-06T05:51:01;98416.31;;;1.62;100.00
21545;BME280;10933;50.754;11.508;2024-01-06T05:53:27;98421.88;;;1.79;100.00
21545;BME280;10933;50.754;11.508;2024-01-06T05:55:53;98438.06;;;1.95;100.00
21545;BME280;10933;50.754;11.508;2024-01-06T05:58:19;98430.94;;;2.08;100.00
21545;BME280;10933;50.754;11.508;2024-01-06T06:00:45;98448.28;;;2.28;100.00
21545;BME280;10933;50.754;11.508;2024-01-06T06:03:12;98443.88;;;1.86;100.00
21545;BME280;10933;50.754;11.508;2024-01-06T06:05:38;98449.28;;;1.79;100.00
21545;BME280;10933;50.754;11.508;2024-01-06T06:08:05;98451.00;;;1.92;100.00
21545;BME280;10933;50.754;11.508;2024-01-06T06:10:31;98460.13;;;2.14;100.00
21545;BME280;10933;50.754;11.508;2024-01-06T06:13:07;98464.88;;;1.94;100.00
21545;BME280;10933;50.754;11.508;2024-01-06T06:15:36;98467.16;;;2.09;100.00
21545;BME280;10933;50.754;11.508;2024-01-06T06:18:02;98470.47;;;2.22;100.00
21545;BME280;10933;50.754;11.508;2024-01-06T06:20:28;98477.09;;;1.76;100.00
21545;BME280;10933;50.754;11.508;2024-01-06T06:22:55;98486.41;;;1.67;100.00
21545;BME280;10933;50.754;11.508;2024-01-06T06:25:21;98489.22;;;1.54;100.00
21545;BME280;10933;50.754;11.508;2024-01-06T06:27:49;98496.06;;;1.62;100.00
21545;BME280;10933;50.754;11.508;2024-01-06T06:30:16;98505.09;;;1.36;100.00
21545;BME280;10933;50.754;11.508;2024-01-06T06:32:42;98497.31;;;1.59;100.00
21545;BME280;10933;50.754;11.508;2024-01-06T06:35:08;98499.41;;;1.57;100.00
21545;BME280;10933;50.754;11.508;2024-01-06T06:37:34;98499.41;;;1.57;100.00
21545;BME280;10933;50.754;11.508;2024-01-06T06:40:00;98502.97;;;1.44;100.00
21545;BME280;10933;50.754;11.508;2024-01-06T06:42:27;98501.34;;;1.43;100.00
21545;BME280;10933;50.754;11.508;2024-01-06T06:44:53;98494.75;;;1.28;100.00
21545;BME280;10933;50.754;11.508;2024-01-06T06:47:19;98496.88;;;1.62;100.00
21545;BME280;10933;50.754;11.508;2024-01-06T06:49:45;98508.56;;;1.36;100.00
21545;BME280;10933;50.754;11.508;2024-01-06T06:52:11;98506.88;;;1.67;100.00
21545;BME280;10933;50.754;11.508;2024-01-06T06:54:39;98512.56;;;1.70;100.00
21545;BME280;10933;50.754;11.508;2024-01-06T06:57:05;98520.03;;;1.80;100.00
21545;BME280;10933;50.754;11.508;2024-01-06T06:59:31;98516.06;;;2.08;100.00
21545;BME280;10933;50.754;11.508;2024-01-06T07:01:57;98532.66;;;1.85;100.00
21545;BME280;10933;50.754;11.508;2024-01-06T07:04:23;98524.28;;;1.63;100.00
21545;BME280;10933;50.754;11.508;2024-01-06T07:06:51;98536.94;;;1.86;100.00
21545;BME280;10933;50.754;11.508;2024-01-06T07:09:17;98541.69;;;1.34;100.00
21545;BME280;10933;50.754;11.508;2024-01-06T07:11:43;98542.44;;;1.91;100.00
21545;BME280;10933;50.754;11.508;2024-01-06T07:14:10;98556.72;;;1.46;100.00
21545;BME280;10933;50.754;11.508;2024-01-06T07:16:36;98557.59;;;1.65;100.00
21545;BME280;10933;50.754;11.508;2024-01-06T07:19:02;98557.28;;;1.80;100.00
21545;BME280;10933;50.754;11.508;2024-01-06T07:21:28;98560.09;;;2.40;100.00
21545;BME280;10933;50.754;11.508;2024-01-06T07:23:54;98572.06;;;2.13;100.00
21545;BME280;10933;50.754;11.508;2024-01-06T07:26:20;98578.22;;;2.13;100.00
21545;BME280;10933;50.754;11.508;2024-01-06T07:28:46;98575.13;;;2.34;100.00
21545;BME280;10933;50.754;11.508;2024-01-06T07:31:13;98589.84;;;2.37;100.00
21545;BME280;10933;50.754;11.508;2024-01-06T07:33:39;98592.84;;;2.22;100.00
21545;BME280;10933;50.754;11.508;2024-01-06T07:36:06;98596.81;;;2.13;100.00
21545;BME280;10933;50.754;11.508;2024-01-06T07:38:32;98596.84;;;1.88;100.00
21545;BME280;10933;50.754;11.508;2024-01-06T07:40:58;98594.38;;;1.93;100.00
21545;BME280;10933;50.754;11.508;2024-01-06T07:43:24;98588.53;;;2.03;100.00
21545;BME280;10933;50.754;11.508;2024-01-06T07:45:50;98598.41;;;2.39;100.00
21545;BME280;10933;50.754;11.508;2024-01-06T07:48:17;98604.41;;;2.34;100.00
21545;BME280;10933;50.754;11.508;2024-01-06T07:50:43;98607.19;;;2.21;100.00
21545;BME280;10933;50.754;11.508;2024-01-06T07:53:09;98613.56;;;2.39;100.00
21545;BME280;10933;50.754;11.508;2024-01-06T07:55:35;98612.56;;;2.15;100.00
21545;BME280;10933;50.754;11.508;2024-01-06T07:58:01;98615.63;;;2.36;100.00
21545;BME280;10933;50.754;11.508;2024-01-06T08:00:28;98608.00;;;2.22;100.00
21545;BME280;10933;50.754;11.508;2024-01-06T08:02:54;98610.91;;;2.20;100.00
21545;BME280;10933;50.754;11.508;2024-01-06T08:05:20;98618.19;;;2.06;100.00
21545;BME280;10933;50.754;11.508;2024-01-06T08:07:46;98618.19;;;2.06;100.00
21545;BME280;10933;50.754;11.508;2024-01-06T08:10:12;98617.69;;;2.16;100.00
21545;BME280;10933;50.754;11.508;2024-01-06T08:12:38;98628.50;;;2.40;100.00
21545;BME280;10933;50.754;11.508;2024-01-06T08:15:05;98619.03;;;2.62;100.00
21545;BME280;10933;50.754;11.508;2024-01-06T08:17:33;98625.75;;;3.01;100.00
21545;BME280;10933;50.754;11.508;2024-01-06T08:19:59;98635.16;;;2.49;100.00
21545;BME280;10933;50.754;11.508;2024-01-06T08:22:25;98635.91;;;2.92;100.00
21545;BME280;10933;50.754;11.508;2024-01-06T08:24:51;98646.59;;;3.04;100.00
21545;BME280;10933;50.754;11.508;2024-01-06T08:27:18;98663.88;;;2.83;100.00
21545;BME280;10933;50.754;11.508;2024-01-06T08:29:44;98660.09;;;2.73;100.00
21545;BME280;10933;50.754;11.508;2024-01-06T08:32:10;98673.19;;;2.92;100.00
21545;BME280;10933;50.754;11.508;2024-01-06T08:34:37;98685.47;;;2.57;100.00
21545;BME280;10933;50.754;11.508;2024-01-06T08:37:04;98690.34;;;2.60;100.00
21545;BME280;10933;50.754;11.508;2024-01-06T08:39:30;98695.22;;;3.00;100.00
21545;BME280;10933;50.754;11.508;2024-01-06T08:41:56;98698.56;;;2.77;100.00
21545;BME280;10933;50.754;11.508;2024-01-06T08:44:22;98698.06;;;2.68;100.00
21545;BME280;10933;50.754;11.508;2024-01-06T08:46:48;98694.63;;;3.16;100.00
21545;BME280;10933;50.754;11.508;2024-01-06T08:49:14;98692.44;;;2.94;100.00
21545;BME280;10933;50.754;11.508;2024-01-06T08:51:40;98691.97;;;2.79;100.00
21545;BME280;10933;50.754;11.508;2024-01-06T08:54:06;98687.25;;;3.18;100.00
21545;BME280;10933;50.754;11.508;2024-01-06T08:56:34;98694.56;;;3.52;100.00
21545;BME280;10933;50.754;11.508;2024-01-06T08:59:00;98706.41;;;3.57;100.00
21545;BME280;10933;50.754;11.508;2024-01-06T09:01:27;98711.41;;;3.65;100.00
21545;BME280;10933;50.754;11.508;2024-01-06T09:03:53;98724.56;;;3.18;100.00
21545;BME280;10933;50.754;11.508;2024-01-06T09:06:19;98728.25;;;2.80;100.00
21545;BME280;10933;50.754;11.508;2024-01-06T09:08:45;98735.38;;;2.61;100.00
21545;BME280;10933;50.754;11.508;2024-01-06T09:11:11;98733.13;;;2.83;100.00
21545;BME280;10933;50.754;11.508;2024-01-06T09:13:37;98741.03;;;2.72;100.00
21545;BME280;10933;50.754;11.508;2024-01-06T09:16:03;98741.41;;;3.12;100.00
21545;BME280;10933;50.754;11.508;2024-01-06T09:18:29;98748.88;;;3.40;100.00
21545;BME280;10933;50.754;11.508;2024-01-06T09:20:55;98748.31;;;3.19;100.00
21545;BME280;10933;50.754;11.508;2024-01-06T09:23:22;98757.25;;;3.73;100.00
21545;BME280;10933;50.754;11.508;2024-01-06T09:25:48;98772.13;;;3.51;100.00
21545;BME280;10933;50.754;11.508;2024-01-06T09:28:18;98776.78;;;3.01;100.00
21545;BME280;10933;50.754;11.508;2024-01-06T09:30:44;98783.63;;;3.81;100.00
21545;BME280;10933;50.754;11.508;2024-01-06T09:33:10;98796.34;;;3.49;100.00
21545;BME280;10933;50.754;11.508;2024-01-06T09:35:36;98798.94;;;3.38;100.00
21545;BME280;10933;50.754;11.508;2024-01-06T09:38:02;98807.66;;;3.08;100.00
21545;BME280;10933;50.754;11.508;2024-01-06T09:40:31;98802.50;;;2.70;100.00
21545;BME280;10933;50.754;11.508;2024-01-06T09:42:58;98806.34;;;2.74;100.00
21545;BME280;10933;50.754;11.508;2024-01-06T09:45:24;98800.56;;;2.77;100.00
21545;BME280;10933;50.754;11.508;2024-01-06T09:47:51;98796.28;;;2.76;100.00
21545;BME280;10933;50.754;11.508;2024-01-06T09:50:21;98791.50;;;3.03;100.00
21545;BME280;10933;50.754;11.508;2024-01-06T09:52:48;98790.72;;;3.39;100.00
21545;BME280;10933;50.754;11.508;2024-01-06T09:55:26;98789.03;;;3.75;100.00
21545;BME280;10933;50.754;11.508;2024-01-06T09:57:55;98796.50;;;3.18;100.00
21545;BME280;10933;50.754;11.508;2024-01-06T10:00:21;98790.28;;;3.06;100.00
21545;BME280;10933;50.754;11.508;2024-01-06T10:02:48;98799.94;;;3.73;100.00
21545;BME280;10933;50.754;11.508;2024-01-06T10:05:16;98799.59;;;3.51;100.00
21545;BME280;10933;50.754;11.508;2024-01-06T10:07:43;98798.22;;;3.79;100.00
21545;BME280;10933;50.754;11.508;2024-01-06T10:10:10;98797.06;;;4.17;100.00
21545;BME280;10933;50.754;11.508;2024-01-06T10:12:40;98797.81;;;3.64;100.00
21545;BME280;10933;50.754;11.508;2024-01-06T10:15:08;98798.50;;;4.31;100.00
21545;BME280;10933;50.754;11.508;2024-01-06T10:17:44;98809.53;;;3.44;100.00
21545;BME280;10933;50.754;11.508;2024-01-06T10:20:11;98798.38;;;3.84;100.00
21545;BME280;10933;50.754;11.508;2024-01-06T10:22:40;98813.00;;;3.93;100.00
21545;BME280;10933;50.754;11.508;2024-01-06T10:25:09;98807.06;;;4.09;100.00
21545;BME280;10933;50.754;11.508;2024-01-06T10:27:37;98809.34;;;4.36;100.00
21545;BME280;10933;50.754;11.508;2024-01-06T10:30:04;98815.19;;;3.66;100.00
21545;BME280;10933;50.754;11.508;2024-01-06T10:32:33;98824.56;;;3.57;100.00
21545;BME280;10933;50.754;11.508;2024-01-06T10:35:04;98812.50;;;3.36;100.00
21545;BME280;10933;50.754;11.508;2024-01-06T10:37:32;98817.81;;;3.54;100.00
21545;BME280;10933;50.754;11.508;2024-01-06T10:42:38;98814.72;;;4.59;100.00
21545;BME280;10933;50.754;11.508;2024-01-06T10:45:09;98814.38;;;4.67;100.00
21545;BME280;10933;50.754;11.508;2024-01-06T10:47:37;98817.38;;;4.48;100.00
21545;BME280;10933;50.754;11.508;2024-01-06T10:50:03;98816.91;;;3.61;100.00
21545;BME280;10933;50.754;11.508;2024-01-06T10:52:31;98816.41;;;3.52;100.00
21545;BME280;10933;50.754;11.508;2024-01-06T10:54:58;98802.91;;;4.25;100.00
21545;BME280;10933;50.754;11.508;2024-01-06T10:57:24;98803.09;;;4.65;100.00
21545;BME280;10933;50.754;11.508;2024-01-06T10:59:52;98815.53;;;4.95;100.00
21545;BME280;10933;50.754;11.508;2024-01-06T11:02:19;98809.94;;;5.31;100.00
21545;BME280;10933;50.754;11.508;2024-01-06T11:04:46;98808.28;;;5.54;100.00
21545;BME280;10933;50.754;11.508;2024-01-06T11:07:18;98825.31;;;5.76;100.00
21545;BME280;10933;50.754;11.508;2024-01-06T11:09:56;98836.19;;;5.58;100.00
21545;BME280;10933;50.754;11.508;2024-01-06T11:12:23;98848.31;;;5.02;100.00
21545;BME280;10933;50.754;11.508;2024-01-06T11:14:49;98855.94;;;5.57;100.00
21545;BME280;10933;50.754;11.508;2024-01-06T11:20:23;98863.13;;;5.92;100.00
21545;BME280;10933;50.754;11.508;2024-01-06T11:22:50;98869.88;;;5.82;100.00
21545;BME280;10933;50.754;11.508;2024-01-06T11:25:21;98882.19;;;4.66;100.00
21545;BME280;10933;50.754;11.508;2024-01-06T11:27:49;98870.16;;;4.87;100.00
21545;BME280;10933;50.754;11.508;2024-01-06T11:30:25;98870.16;;;4.76;100.00
21545;BME280;10933;50.754;11.508;2024-01-06T11:32:53;98869.41;;;4.68;100.00
21545;BME280;10933;50.754;11.508;2024-01-06T11:35:20;98872.41;;;5.37;100.00
21545;BME280;10933;50.754;11.508;2024-01-06T11:42:46;98890.59;;;4.82;100.00
21545;BME280;10933;50.754;11.508;2024-01-06T11:45:13;98872.03;;;4.98;100.00
21545;BME280;10933;50.754;11.508;2024-01-06T11:47:40;98875.59;;;5.74;100.00
21545;BME280;10933;50.754;11.508;2024-01-06T11:50:13;98892.16;;;6.23;100.00
21545;BME280;10933;50.754;11.508;2024-01-06T11:52:39;98895.59;;;6.35;100.00
21545;BME280;10933;50.754;11.508;2024-01-06T11:55:06;98899.06;;;5.96;100.00
21545;BME280;10933;50.754;11.508;2024-01-06T11:57:35;98913.28;;;6.36;100.00
21545;BME280;10933;50.754;11.508;2024-01-06T12:00:02;98909.81;;;5.72;100.00
21545;BME280;10933;50.754;11.508;2024-01-06T12:02:30;98910.25;;;6.33;100.00
21545;BME280;10933;50.754;11.508;2024-01-06T12:04:56;98908.41;;;5.93;100.00
21545;BME280;10933;50.754;11.508;2024-01-06T12:07:22;98915.25;;;6.41;100.00
21545;BME280;10933;50.754;11.508;2024-01-06T12:10:00;98913.97;;;6.32;100.00
21545;BME280;10933;50.754;11.508;2024-01-06T12:12:26;98920.06;;;6.27;100.00
21545;BME280;10933;50.754;11.508;2024-01-06T12:14:52;98911.22;;;6.55;100.00
21545;BME280;10933;50.754;11.508;2024-01-06T12:17:21;98920.44;;;6.93;100.00
21545;BME280;10933;50.754;11.508;2024-01-06T12:19:47;98931.19;;;5.84;100.00
21545;BME280;10933;50.754;11.508;2024-01-06T12:22:14;98935.13;;;6.45;100.00
21545;BME280;10933;50.754;11.508;2024-01-06T12:24:42;98942.25;;;5.87;100.00
21545;BME280;10933;50.754;11.508;2024-01-06T12:27:11;98936.44;;;5.44;100.00
21545;BME280;10933;50.754;11.508;2024-01-06T12:29:41;98931.56;;;5.64;100.00
21545;BME280;10933;50.754;11.508;2024-01-06T12:32:08;98929.81;;;5.58;100.00
21545;BME280;10933;50.754;11.508;2024-01-06T12:34:35;98941.44;;;5.75;100.00
21545;BME280;10933;50.754;11.508;2024-01-06T12:37:02;98947.59;;;5.87;100.00
21545;BME280;10933;50.754;11.508;2024-01-06T12:39:29;98943.06;;;6.00;100.00
21545;BME280;10933;50.754;11.508;2024-01-06T12:41:56;98949.22;;;5.88;100.00
21545;BME280;10933;50.754;11.508;2024-01-06T12:44:23;98948.47;;;6.28;100.00
21545;BME280;10933;50.754;11.508;2024-01-06T12:46:49;98952.13;;;6.10;100.00
21545;BME280;10933;50.754;11.508;2024-01-06T12:49:15;98952.31;;;7.23;100.00
21545;BME280;10933;50.754;11.508;2024-01-06T12:51:41;98963.44;;;6.01;100.00
21545;BME280;10933;50.754;11.508;2024-01-06T12:54:07;98958.94;;;6.30;100.00
21545;BME280;10933;50.754;11.508;2024-01-06T12:56:34;98959.00;;;5.95;100.00
21545;BME280;10933;50.754;11.508;2024-01-06T12:59:00;98970.19;;;6.43;100.00